Time;durP1;ratioP1;P1;durP2;ratioP2;P2;SDS_P1;SDS_P2;PMS_P1;PMS_P2;Temp;Humidity;BMP_temperature;BMP_pressure;BME280_temperature;BME280_humidity;BME280_pressure;Samples;Min_cycle;Max_cycle;Signal;HPM_P1;HPM_P2
2023/04/13 00:00:10;;;;;;;36.67;20.17;;;;;;;5.35;65.63;97302.50;5091653;28;20035;-73
2023/04/13 00:02:39;;;;;;;33.85;21.30;;;;;;;5.33;65.36;97298.44;5091553;28;20437;-72
2023/04/13 00:05:09;;;;;;;34.37;20.17;;;;;;;5.29;65.99;97303.66;5092235;28;20024;-73
2023/04/13 00:07:38;;;;;;;38.50;21.05;;;;;;;5.26;65.56;97295.28;5092115;28;20519;-74
2023/04/13 00:10:09;;;;;;;35.60;21.77;;;;;;;5.22;65.97;97297.75;5091689;28;20031;-74
2023/04/13 00:12:35;;;;;;;37.17;22.08;;;;;;;5.14;65.91;97296.50;5091211;28;20030;-73
2023/04/13 00:15:04;;;;;;;39.70;22.70;;;;;;;5.10;66.14;97292.72;5091505;28;20027;-73
2023/04/13 00:17:30;;;;;;;41.73;25.07;;;;;;;5.05;66.58;97290.88;5091594;28;20039;-74
2023/04/13 00:19:58;;;;;;;46.67;27.08;;;;;;;5.01;65.76;97292.56;5091531;28;20027;-73
2023/04/13 00:22:28;;;;;;;48.03;27.17;;;;;;;4.99;65.73;97294.75;5090787;28;20538;-73
2023/04/13 00:24:54;;;;;;;40.90;24.10;;;;;;;4.98;65.88;97301.28;5090671;28;20080;-73
2023/04/13 00:27:26;;;;;;;39.42;23.55;;;;;;;4.94;66.59;97299.41;5091256;28;20503;-74
2023/04/13 00:29:55;;;;;;;41.90;22.90;;;;;;;4.89;66.08;97298.38;5072780;28;20032;-74
2023/04/13 00:32:24;;;;;;;40.20;23.80;;;;;;;4.85;66.47;97291.91;5090424;28;20480;-74
2023/04/13 00:34:50;;;;;;;35.80;21.55;;;;;;;4.82;66.58;97294.38;5091345;28;20042;-74
2023/04/13 00:37:17;;;;;;;37.17;22.35;;;;;;;4.80;65.87;97293.84;5091374;28;20407;-73
2023/04/13 00:39:47;;;;;;;34.70;22.00;;;;;;;4.79;66.05;97293.06;5091177;28;20644;-74
2023/04/13 00:42:12;;;;;;;37.95;22.85;;;;;;;4.77;66.16;97292.53;5090362;28;20032;-74
2023/04/13 00:44:38;;;;;;;37.08;22.35;;;;;;;4.76;65.56;97304.50;5090508;28;20113;-74
2023/04/13 00:47:04;;;;;;;41.63;22.75;;;;;;;4.74;66.00;97295.81;5090972;28;20404;-74
2023/04/13 00:49:34;;;;;;;35.10;22.70;;;;;;;4.75;66.44;97302.88;5090848;28;20047;-74
2023/04/13 00:52:01;;;;;;;;;;;;;;;4.76;66.40;97305.28;5090531;28;20081;-74
2023/04/13 00:54:28;;;;;;;37.22;22.75;;;;;;;4.76;65.58;97305.28;5091147;28;19927;-74
2023/04/13 00:56:54;;;;;;;36.25;21.42;;;;;;;4.79;65.45;97305.81;5091389;28;20028;-74
2023/04/13 00:59:20;;;;;;;39.15;22.60;;;;;;;4.81;65.68;97304.44;5072627;28;20369;-73
2023/04/13 01:01:49;;;;;;;38.20;22.92;;;;;;;4.82;65.67;97299.81;5090264;28;20024;-73
2023/04/13 01:04:18;;;;;;;39.42;22.95;;;;;;;4.84;65.54;97297.63;5091328;28;20073;-73
2023/04/13 01:06:52;;;;;;;38.15;23.30;;;;;;;4.85;65.95;97293.81;5091035;28;20077;-73
2023/04/13 01:09:29;;;;;;;42.55;25.77;;;;;;;4.84;65.48;97298.44;5091001;28;20043;-73
2023/04/13 01:12:05;;;;;;;47.90;27.55;;;;;;;4.86;65.53;97307.13;5089719;28;20032;-73
2023/04/13 01:14:56;;;;;;;53.60;28.90;;;;;;;4.90;65.85;97299.19;5090711;28;20020;-73
2023/04/13 01:17:28;;;;;;;57.65;32.85;;;;;;;4.91;65.93;97298.91;5072434;28;20148;-73
2023/04/13 01:19:57;;;;;;;52.55;30.48;;;;;;;4.93;65.54;97301.34;5090870;28;20439;-73
2023/04/13 01:22:28;;;;;;;49.53;29.88;;;;;;;4.94;65.82;97302.97;5089472;28;20119;-74
2023/04/13 01:25:16;;;;;;;46.85;28.35;;;;;;;4.95;65.94;97299.16;5090593;28;20434;-74
2023/04/13 01:27:51;;;;;;;40.83;25.98;;;;;;;5.00;65.64;97298.28;5090455;28;20031;-73
2023/04/13 01:30:23;;;;;;;39.88;24.13;;;;;;;5.01;65.63;97295.28;5090335;28;20028;-73
2023/04/13 01:32:50;;;;;;;43.35;23.88;;;;;;;5.04;65.90;97299.31;5089595;28;20498;-73
2023/04/13 01:35:18;;;;;;;38.90;23.05;;;;;;;5.06;65.86;97302.56;5090164;28;20028;-73
2023/04/13 01:37:43;;;;;;;37.03;22.88;;;;;;;5.07;66.20;97298.75;5090341;28;20032;-74
2023/04/13 01:40:10;;;;;;;34.63;21.85;;;;;;;5.09;66.19;97295.75;5090241;28;20032;-73
2023/04/13 01:42:37;;;;;;;36.75;21.95;;;;;;;5.10;66.02;97300.88;5089823;28;20020;-74
2023/04/13 01:45:05;;;;;;;38.85;22.35;;;;;;;5.10;65.88;97297.34;5090642;28;20048;-73
2023/04/13 01:47:33;;;;;;;38.25;22.45;;;;;;;5.09;66.12;97296.53;5090118;28;20035;-73
2023/04/13 01:50:07;;;;;;;37.97;21.35;;;;;;;5.09;66.48;97301.19;5090342;28;20101;-74
2023/04/13 01:52:33;;;;;;;36.80;22.60;;;;;;;5.09;66.69;97299.25;5089735;28;20034;-73
2023/04/13 01:54:59;;;;;;;38.38;22.05;;;;;;;5.08;66.53;97294.94;5090043;28;20039;-73
2023/04/13 01:57:27;;;;;;;39.88;22.38;;;;;;;5.08;66.58;97294.94;5072011;28;20121;-73
2023/04/13 01:59:53;;;;;;;45.08;25.83;;;;;;;5.10;66.78;97300.06;5089993;28;20078;-73
2023/04/13 02:02:19;;;;;;;46.53;25.00;;;;;;;5.11;67.15;97294.34;5070751;28;20411;-74
2023/04/13 02:04:45;;;;;;;47.20;25.92;;;;;;;5.15;66.35;97297.28;5071814;28;20074;-73
2023/04/13 02:07:11;;;;;;;45.33;24.52;;;;;;;5.19;66.64;97298.34;5089746;28;20473;-74
2023/04/13 02:09:36;;;;;;;44.05;25.30;;;;;;;5.21;66.68;97291.53;5090274;28;20034;-72
2023/04/13 02:12:02;;;;;;;41.25;24.33;;;;;;;5.26;66.74;97281.69;5088981;28;20024;-74
2023/04/13 02:14:27;;;;;;;41.35;23.80;;;;;;;5.29;67.12;97289.25;5089889;28;20036;-74
2023/04/13 02:16:53;;;;;;;39.60;23.13;;;;;;;5.27;67.03;97281.38;5089663;28;20024;-73
2023/04/13 02:19:20;;;;;;;38.33;23.20;;;;;;;5.25;66.71;97285.50;5089835;28;20032;-75
2023/04/13 02:21:46;;;;;;;38.67;22.75;;;;;;;5.25;66.82;97280.88;5089048;28;20036;-73
2023/04/13 02:24:13;;;;;;;37.35;22.70;;;;;;;5.25;67.22;97283.59;5089602;28;20042;-73
2023/04/13 02:26:39;;;;;;;40.17;23.00;;;;;;;5.21;67.12;97280.66;5090121;28;20028;-72
2023/04/13 02:29:04;;;;;;;37.28;22.42;;;;;;;5.20;67.07;97278.19;5071654;28;20038;-74
2023/04/13 02:31:30;;;;;;;38.97;23.38;;;;;;;5.18;67.14;97277.69;5088778;28;20103;-73
2023/04/13 02:33:56;;;;;;;39.83;23.88;;;;;;;5.14;67.47;97277.47;5089197;28;20028;-72
2023/04/13 02:36:23;;;;;;;40.15;23.10;;;;;;;5.13;67.42;97275.03;5089860;28;20383;-73
2023/04/13 02:38:49;;;;;;;39.03;22.73;;;;;;;5.09;67.23;97277.53;5089490;28;20103;-72
2023/04/13 02:41:15;;;;;;;38.92;22.33;;;;;;;5.06;67.55;97280.81;5089628;28;20031;-72
2023/04/13 02:43:40;;;;;;;42.28;22.45;;;;;;;5.01;66.78;97284.41;5089315;28;20110;-73
2023/04/13 02:46:06;;;;;;;40.10;23.10;;;;;;;4.96;66.71;97281.75;5089818;28;20028;-73
2023/04/13 02:48:31;;;;;;;40.83;23.17;;;;;;;4.92;67.24;97288.84;5090949;28;20035;-72
2023/04/13 02:50:57;;;;;;;43.13;23.90;;;;;;;4.88;67.58;97276.94;5091583;28;20016;-72
2023/04/13 02:53:24;;;;;;;51.95;28.45;;;;;;;4.81;67.06;97277.28;5090940;28;20368;-72
2023/04/13 02:55:49;;;;;;;51.05;27.42;;;;;;;4.76;67.68;97282.78;5091543;28;20016;-72
2023/04/13 02:58:14;;;;;;;43.92;25.10;;;;;;;4.70;67.30;97290.13;5091537;28;20024;-72
2023/04/13 03:00:40;;;;;;;44.38;23.80;;;;;;;4.66;67.36;97280.97;5091340;28;20043;-73
2023/04/13 03:03:05;;;;;;;39.78;23.08;;;;;;;4.61;67.84;97287.25;5090786;28;20074;-72
2023/04/13 03:05:31;;;;;;;38.92;23.00;;;;;;;4.58;67.38;97282.38;5091370;28;20020;-72
2023/04/13 03:07:58;;;;;;;39.15;23.00;;;;;;;4.58;67.66;97292.44;5091295;28;20032;-72
2023/04/13 03:10:24;;;;;;;39.97;24.70;;;;;;;4.56;67.70;97289.22;5092592;28;20036;-72
2023/04/13 03:12:49;;;;;;;44.65;26.48;;;;;;;4.55;67.31;97282.94;5074704;28;20054;-72
2023/04/13 03:15:17;;;;;;;42.53;25.73;;;;;;;4.55;67.63;97290.31;5092688;28;20028;-72
2023/04/13 03:17:43;;;;;;;42.65;25.50;;;;;;;4.54;67.23;97284.03;5092601;28;20103;-72
2023/04/13 03:20:11;;;;;;;42.42;25.02;;;;;;;4.55;67.23;97282.16;5071185;28;20035;-73
2023/04/13 03:22:37;;;;;;;42.35;25.23;;;;;;;4.58;66.97;97287.81;5092351;28;20467;-72
2023/04/13 03:25:03;;;;;;;40.78;25.58;;;;;;;4.58;66.97;97293.25;5074511;28;20032;-72
2023/04/13 03:27:29;;;;;;;41.25;25.48;;;;;;;4.60;67.11;97290.25;5092792;28;20027;-72
2023/04/13 03:29:54;;;;;;;43.00;26.63;;;;;;;4.58;67.54;97293.25;5092800;28;20028;-72
2023/04/13 03:32:20;;;;;;;37.63;24.27;;;;;;;4.57;67.00;97290.84;5092412;28;20028;-72
2023/04/13 03:34:45;;;;;;;39.17;25.25;;;;;;;4.55;67.52;97291.09;5092357;28;20024;-72
2023/04/13 03:37:11;;;;;;;38.60;23.58;;;;;;;4.54;66.97;97296.84;5092904;28;20033;-72
2023/04/13 03:39:38;;;;;;;42.70;24.42;;;;;;;4.54;67.19;97299.53;5092327;28;20446;-72
2023/04/13 03:42:03;;;;;;;39.10;23.35;;;;;;;4.54;67.45;97300.34;5092109;28;20026;-72
2023/04/13 03:44:30;;;;;;;40.83;25.60;;;;;;;4.53;66.82;97295.22;5091925;28;20036;-72
2023/04/13 03:46:55;;;;;;;41.08;25.70;;;;;;;4.53;66.96;97301.44;5092409;28;20028;-72
2023/04/13 03:49:21;;;;;;;39.65;24.52;;;;;;;4.53;67.21;97295.22;5091933;28;20024;-71
2023/04/13 03:51:46;;;;;;;43.25;26.85;;;;;;;4.52;67.74;97294.38;5073763;28;20036;-72
2023/04/13 03:54:11;;;;;;;40.38;25.10;;;;;;;4.52;67.57;97299.03;5091863;28;20430;-72
2023/04/13 03:56:37;;;;;;;38.03;23.02;;;;;;;4.54;68.01;97300.34;5073973;28;20062;-72
2023/04/13 03:59:02;;;;;;;40.28;24.10;;;;;;;4.53;67.52;97290.56;5091187;28;20063;-72
2023/04/13 04:01:28;;;;;;;40.67;23.33;;;;;;;4.53;67.74;97287.84;5091600;28;20042;-72
2023/04/13 04:03:55;;;;;;;41.25;23.58;;;;;;;4.56;67.50;97286.50;5091509;28;20048;-72
2023/04/13 04:06:22;;;;;;;43.20;22.63;;;;;;;4.56;67.91;97289.22;5073507;28;20043;-72
2023/04/13 04:08:48;;;;;;;44.30;26.73;;;;;;;4.58;67.67;97285.09;5091811;28;20490;-72
2023/04/13 04:11:15;;;;;;;42.83;23.75;;;;;;;4.62;67.74;97290.78;5091530;28;20023;-71
2023/04/13 04:13:40;;;;;;;43.13;23.65;;;;;;;4.66;68.14;97283.69;5091568;28;20395;-72
2023/04/13 04:16:07;;;;;;;39.13;22.15;;;;;;;4.69;68.21;97288.53;5091576;28;20482;-72
2023/04/13 04:18:34;;;;;;;41.05;24.67;;;;;;;4.73;68.05;97294.22;5091432;28;20063;-73
2023/04/13 04:21:01;;;;;;;39.65;23.02;;;;;;;4.73;68.04;97292.28;5091374;28;20040;-72
2023/04/13 04:23:27;;;;;;;39.42;22.40;;;;;;;4.75;67.87;97298.25;5091192;28;20056;-72
2023/04/13 04:25:53;;;;;;;37.35;21.38;;;;;;;4.79;68.21;97300.38;5091184;28;20067;-72
2023/04/13 04:28:19;;;;;;;36.03;21.42;;;;;;;4.82;68.38;97297.09;5091466;28;20024;-72
2023/04/13 04:30:52;;;;;;;32.75;20.67;;;;;;;4.83;68.58;97294.13;5091138;28;20054;-72
2023/04/13 04:33:21;;;;;;;33.85;21.17;;;;;;;4.85;67.94;97297.34;5090953;28;20495;-72
2023/04/13 04:35:50;;;;;;;32.13;19.77;;;;;;;4.90;67.69;97300.00;5090896;28;20411;-72
2023/04/13 04:38:18;;;;;;;31.85;19.02;;;;;;;4.94;68.50;97299.41;5090911;28;20051;-72
2023/04/13 04:40:44;;;;;;;31.92;18.88;;;;;;;4.96;68.18;97295.34;5090984;28;20033;-73
2023/04/13 04:43:12;;;;;;;32.35;19.52;;;;;;;5.01;68.09;97298.00;5090670;28;20388;-72
2023/04/13 04:45:40;;;;;;;32.85;20.85;;;;;;;5.09;68.15;97293.03;5090848;28;20472;-72
2023/04/13 04:48:06;;;;;;;30.95;19.25;;;;;;;5.15;68.14;97295.41;5090740;28;20024;-71
2023/04/13 04:50:32;;;;;;;28.00;18.13;;;;;;;5.21;67.72;97304.28;5090975;28;20023;-72
2023/04/13 04:52:58;;;;;;;29.60;17.27;;;;;;;5.26;68.31;97301.50;5090449;28;20016;-72
2023/04/13 04:55:23;;;;;;;29.23;17.80;;;;;;;5.33;68.19;97306.59;5090741;28;20024;-72
2023/04/13 04:57:48;;;;;;;29.55;17.75;;;;;;;5.41;68.16;97307.88;5090935;28;20115;-72
2023/04/13 05:00:15;;;;;;;32.95;19.30;;;;;;;5.47;67.98;97310.22;5090692;28;20403;-72
2023/04/13 05:02:41;;;;;;;34.72;20.80;;;;;;;5.54;67.92;97311.78;5072100;28;20043;-71
2023/04/13 05:05:08;;;;;;;35.15;20.02;;;;;;;5.62;67.80;97311.16;5090756;28;20024;-73
2023/04/13 05:07:33;;;;;;;40.10;22.77;;;;;;;5.71;67.81;97322.97;5090881;28;20024;-73
2023/04/13 05:09:59;;;;;;;36.47;21.90;;;;;;;5.80;67.96;97317.72;5090525;28;20530;-72
2023/04/13 05:12:25;;;;;;;38.72;21.88;;;;;;;5.92;67.90;97322.72;5090154;28;20031;-72
2023/04/13 05:14:50;;;;;;;35.15;22.70;;;;;;;6.03;67.66;97323.41;5090931;28;20078;-72
2023/04/13 05:17:18;;;;;;;37.95;22.75;;;;;;;6.14;67.78;97322.16;5090665;28;20035;-72
2023/04/13 05:19:44;;;;;;;37.25;22.60;;;;;;;6.27;67.86;97319.78;5090584;28;20067;-72
2023/04/13 05:22:14;;;;;;;36.55;21.13;;;;;;;6.35;67.79;97324.56;5089873;28;20572;-72
2023/04/13 05:24:39;;;;;;;36.83;21.08;;;;;;;6.44;67.57;97328.22;5090648;28;20125;-72
2023/04/13 05:27:08;;;;;;;36.45;21.88;;;;;;;6.51;67.52;97322.41;5090567;28;20477;-72
2023/04/13 05:29:34;;;;;;;34.97;20.98;;;;;;;6.61;67.40;97321.44;5090523;28;20024;-72
2023/04/13 05:32:00;;;;;;;33.40;20.40;;;;;;;6.67;67.27;97321.03;5071436;28;20146;-72
2023/04/13 05:34:26;;;;;;;35.10;22.25;;;;;;;6.76;67.48;97321.16;5090218;28;20032;-72
2023/04/13 05:36:52;;;;;;;38.65;22.25;;;;;;;6.82;67.04;97330.84;5071978;28;20031;-72
2023/04/13 05:39:18;;;;;;;37.45;21.55;;;;;;;6.89;66.86;97322.31;5090195;28;20723;-73
2023/04/13 05:41:44;;;;;;;39.13;22.25;;;;;;;6.92;66.88;97320.88;5089566;28;20028;-73
2023/04/13 05:44:09;;;;;;;35.22;21.80;;;;;;;6.94;66.55;97326.84;5089864;28;20050;-72
2023/04/13 05:46:34;;;;;;;38.83;22.58;;;;;;;6.94;66.55;97318.66;5090009;28;20030;-73
2023/04/13 05:49:00;;;;;;;39.17;23.08;;;;;;;6.98;66.62;97325.16;5090114;28;20032;-73
2023/04/13 05:51:29;;;;;;;35.22;22.00;;;;;;;7.04;67.13;97323.13;5089818;28;20455;-72
2023/04/13 05:53:55;;;;;;;37.80;22.43;;;;;;;7.08;66.50;97321.41;5089786;28;20062;-73
2023/04/13 05:56:23;;;;;;;33.88;21.00;;;;;;;7.14;66.78;97323.72;5089912;28;20266;-73
2023/04/13 05:58:48;;;;;;;34.58;20.10;;;;;;;7.21;67.06;97314.34;5090046;28;20036;-72
2023/04/13 06:01:15;;;;;;;42.58;26.15;;;;;;;7.27;66.86;97324.06;5089841;28;20040;-72
2023/04/13 06:03:42;;;;;;;37.25;23.05;;;;;;;7.34;66.21;97327.19;5071332;28;20037;-72
2023/04/13 06:06:07;;;;;;;36.20;22.17;;;;;;;7.41;66.55;97327.59;5089754;28;20056;-72
2023/04/13 06:08:33;;;;;;;32.70;19.67;;;;;;;7.50;66.30;97324.97;5090195;28;20056;-72
2023/04/13 06:10:59;;;;;;;31.10;19.40;;;;;;;7.60;66.60;97321.22;5090037;28;20028;-73
2023/04/13 06:13:25;;;;;;;31.75;18.88;;;;;;;7.69;66.36;97327.56;5089780;28;20020;-73
2023/04/13 06:15:54;;;;;;;27.75;18.38;;;;;;;7.81;66.12;97328.97;5089957;28;20024;-72
2023/04/13 06:18:19;;;;;;;29.58;17.75;;;;;;;7.91;65.98;97326.03;5089732;28;20430;-73
2023/04/13 06:20:45;;;;;;;28.77;16.55;;;;;;;8.04;65.93;97321.66;5089850;28;20028;-73
2023/04/13 06:23:12;;;;;;;27.52;16.42;;;;;;;8.13;65.67;97321.72;5073431;28;20020;-73
2023/04/13 06:25:37;;;;;;;25.27;15.20;;;;;;;8.22;65.57;97328.06;5094147;28;20027;-73
2023/04/13 06:28:03;;;;;;;25.35;15.25;;;;;;;8.30;65.58;97321.06;5093059;28;20032;-72
2023/04/13 06:30:29;;;;;;;25.63;15.50;;;;;;;8.40;64.87;97322.72;5094417;28;20039;-73
2023/04/13 06:32:54;;;;;;;26.30;15.05;;;;;;;8.49;64.96;97321.72;5076623;28;20413;-73
2023/04/13 06:35:20;;;;;;;27.85;15.88;;;;;;;8.59;64.50;97320.66;5093516;28;20028;-72
2023/04/13 06:37:46;;;;;;;26.90;15.27;;;;;;;8.69;64.53;97319.59;5093801;28;20047;-72
2023/04/13 06:40:13;;;;;;;24.48;14.23;;;;;;;8.75;64.45;97318.34;5090942;28;20032;-71
2023/04/13 06:42:42;;;;;;;30.92;15.25;;;;;;;8.87;64.37;97319.72;5093749;28;20468;-71
2023/04/13 06:45:09;;;;;;;26.90;15.43;;;;;;;8.96;63.86;97319.75;5062365;28;20091;-72
2023/04/13 06:47:36;;;;;;;24.42;14.73;;;;;;;9.05;63.69;97321.41;5054051;28;20070;-72
2023/04/13 06:50:06;;;;;;;26.88;13.95;;;;;;;9.10;63.00;97323.22;5059223;28;20097;-72
2023/04/13 06:52:33;;;;;;;29.50;15.73;;;;;;;9.16;62.67;97327.44;5068351;28;20049;-72
2023/04/13 06:54:58;;;;;;;29.27;16.23;;;;;;;9.20;63.12;97331.13;5066437;28;20467;-72
2023/04/13 06:57:24;;;;;;;25.73;14.80;;;;;;;9.26;63.41;97333.72;5071533;28;20362;-72
2023/04/13 06:59:49;;;;;;;27.58;14.50;;;;;;;9.33;62.40;97336.81;5072148;28;20032;-72
2023/04/13 07:02:15;;;;;;;23.40;14.05;;;;;;;9.38;62.65;97332.00;5051610;28;20071;-72
2023/04/13 07:04:40;;;;;;;27.77;14.82;;;;;;;9.45;62.65;97337.03;5053753;28;20071;-72
2023/04/13 07:07:05;;;;;;;28.00;14.77;;;;;;;9.47;62.78;97328.50;5053756;28;20025;-71
2023/04/13 07:09:31;;;;;;;28.23;15.10;;;;;;;9.54;62.65;97331.59;5053682;28;20029;-72
2023/04/13 07:12:02;;;;;;;25.10;14.32;;;;;;;9.62;61.94;97330.00;5053169;28;20389;-71
2023/04/13 07:14:34;;;;;;;26.08;14.70;;;;;;;9.66;61.75;97317.28;5053932;28;20063;-72
2023/04/13 07:17:01;;;;;;;26.38;15.05;;;;;;;9.72;62.22;97324.22;5052702;28;20820;-72
2023/04/13 07:19:28;;;;;;;23.35;13.07;;;;;;;9.78;61.43;97324.91;5054545;28;20090;-71
2023/04/13 07:21:54;;;;;;;27.48;13.57;;;;;;;9.83;61.12;97322.81;5067339;28;20038;-71
2023/04/13 07:24:19;;;;;;;21.20;12.07;;;;;;;9.89;60.59;97325.41;5068101;28;20024;-72
2023/04/13 07:26:45;;;;;;;20.75;11.55;;;;;;;9.91;59.92;97323.16;5056485;28;20036;-70
2023/04/13 07:29:12;;;;;;;23.17;11.82;;;;;;;9.94;60.58;97319.78;5052639;28;20543;-70
2023/04/13 07:31:38;;;;;;;24.20;13.35;;;;;;;10.00;59.60;97315.72;5069897;28;20029;-71
2023/04/13 07:34:04;;;;;;;27.60;15.50;;;;;;;10.06;60.15;97314.44;5070850;28;20060;-70
2023/04/13 07:36:30;;;;;;;26.75;16.58;;;;;;;10.12;59.21;97323.34;5069659;28;20044;-70
2023/04/13 07:38:56;;;;;;;22.73;12.55;;;;;;;10.18;59.38;97313.00;5070834;28;20492;-70
2023/04/13 07:41:23;;;;;;;20.75;12.38;;;;;;;10.26;59.37;97326.72;5058861;28;20029;-70
2023/04/13 07:43:48;;;;;;;21.13;12.15;;;;;;;10.35;59.60;97317.69;5078728;28;20044;-71
2023/04/13 07:46:14;;;;;;;19.80;11.48;;;;;;;10.49;58.92;97317.53;5089248;28;20032;-71
2023/04/13 07:48:40;;;;;;;18.25;10.25;;;;;;;10.60;58.06;97321.56;5091374;28;20035;-71
2023/04/13 07:51:06;;;;;;;17.17;9.70;;;;;;;10.69;57.47;97316.06;5091600;28;20031;-70
2023/04/13 07:53:31;;;;;;;17.52;9.98;;;;;;;10.78;57.63;97316.88;5091047;28;20484;-70
2023/04/13 07:55:56;;;;;;;15.02;8.68;;;;;;;10.91;57.04;97322.50;5090665;28;20043;-71
2023/04/13 07:58:22;;;;;;;13.55;7.00;;;;;;;10.99;55.85;97310.69;5089273;28;20028;-71
2023/04/13 08:00:48;;;;;;;10.85;7.18;;;;;;;11.09;55.38;97306.78;5087460;28;20532;-72
2023/04/13 08:03:13;;;;;;;12.05;6.70;;;;;;;11.19;56.66;97314.66;5089513;28;20024;-71
2023/04/13 08:05:38;;;;;;;10.00;6.07;;;;;;;11.34;56.62;97324.28;5088616;28;20036;-73
2023/04/13 08:08:04;;;;;;;9.63;5.93;;;;;;;11.49;55.68;97319.38;5089320;28;20123;-71
2023/04/13 08:10:29;;;;;;;8.80;5.38;;;;;;;11.62;54.57;97316.38;5089292;28;20103;-72
2023/04/13 08:12:55;;;;;;;10.90;5.75;;;;;;;11.73;55.30;97319.59;5089508;28;20077;-71
2023/04/13 08:15:20;;;;;;;12.23;7.05;;;;;;;11.88;55.01;97329.19;5088401;28;20023;-71
2023/04/13 08:17:46;;;;;;;11.95;8.00;;;;;;;12.01;55.45;97324.59;5088062;28;20467;-73
2023/04/13 08:20:12;;;;;;;9.38;5.45;;;;;;;12.14;54.97;97319.19;5083735;28;20555;-72
2023/04/13 08:22:38;;;;;;;7.13;4.80;;;;;;;12.30;53.60;97320.19;5089412;28;20065;-71
2023/04/13 08:25:06;;;;;;;10.35;5.55;;;;;;;12.42;54.45;97316.72;5088754;28;20389;-73
2023/04/13 08:27:31;;;;;;;12.27;6.10;;;;;;;12.55;54.07;97325.00;5088315;28;20111;-72
2023/04/13 08:30:00;;;;;;;9.05;5.30;;;;;;;12.65;52.05;97328.13;5090556;28;20118;-72
2023/04/13 08:32:26;;;;;;;8.07;4.68;;;;;;;12.74;53.69;97335.50;5069228;28;20115;-71
2023/04/13 08:34:53;;;;;;;7.40;4.63;;;;;;;12.89;53.78;97328.56;5089198;28;20028;-70
2023/04/13 08:37:19;;;;;;;9.82;5.18;;;;;;;13.00;53.68;97332.50;5089344;28;20066;-70
2023/04/13 08:39:47;;;;;;;11.20;7.13;;;;;;;13.06;53.34;97324.81;5089010;28;20032;-70
2023/04/13 08:42:13;;;;;;;9.98;6.03;;;;;;;13.06;52.71;97335.81;5069507;28;20394;-69
2023/04/13 08:44:39;;;;;;;8.57;4.63;;;;;;;13.03;52.60;97329.06;5082885;28;20054;-70
2023/04/13 08:47:04;;;;;;;8.30;5.18;;;;;;;13.05;52.38;97329.53;5079002;28;20032;-70
2023/04/13 08:49:31;;;;;;;9.77;4.50;;;;;;;13.05;52.75;97334.22;5069843;28;20020;-70
2023/04/13 08:51:58;;;;;;;7.63;4.68;;;;;;;13.07;52.24;97335.50;5075874;28;20081;-70
2023/04/13 08:54:27;;;;;;;9.45;5.28;;;;;;;13.04;51.74;97338.94;5086963;28;20024;-69
2023/04/13 08:56:56;;;;;;;9.23;4.68;;;;;;;13.02;51.73;97341.22;5075289;28;20020;-70
2023/04/13 08:59:22;;;;;;;9.70;4.85;;;;;;;13.04;51.61;97349.16;5060586;28;20054;-70
2023/04/13 09:01:49;;;;;;;8.70;5.05;;;;;;;13.09;51.51;97332.41;5056070;28;20035;-70
2023/04/13 09:04:19;;;;;;;9.93;5.18;;;;;;;13.17;51.75;97337.00;5055464;28;20082;-71
2023/04/13 09:06:46;;;;;;;10.35;5.30;;;;;;;13.25;51.53;97338.88;5059834;28;20115;-71
2023/04/13 09:09:13;;;;;;;10.18;5.00;;;;;;;13.31;51.36;97344.16;5060242;28;20064;-70
2023/04/13 09:11:40;;;;;;;7.95;4.70;;;;;;;13.33;51.39;97344.63;5062018;28;20042;-71
2023/04/13 09:14:07;;;;;;;7.10;4.60;;;;;;;13.37;50.76;97362.06;5071086;28;20184;-72
2023/04/13 09:16:41;;;;;;;7.68;5.13;;;;;;;13.38;50.90;97345.19;5060051;28;20028;-70
2023/04/13 09:19:10;;;;;;;7.35;4.53;;;;;;;13.43;50.84;97349.72;5062038;28;20032;-72
2023/04/13 09:21:43;;;;;;;11.80;5.63;;;;;;;13.46;50.86;97345.47;5056329;28;20025;-70
2023/04/13 09:24:10;;;;;;;7.90;4.95;;;;;;;13.43;49.05;97338.69;5052449;28;20044;-71
2023/04/13 09:26:53;;;;;;;9.05;4.50;;;;;;;13.37;50.51;97342.78;5054459;28;20032;-70
2023/04/13 09:29:20;;;;;;;7.90;4.82;;;;;;;13.42;49.81;97334.34;5061204;28;20122;-71
2023/04/13 09:31:47;;;;;;;7.72;4.50;;;;;;;13.49;50.77;97339.28;5064813;28;20125;-71
2023/04/13 09:34:24;;;;;;;7.40;4.13;;;;;;;13.54;50.23;97339.84;5060456;28;20066;-72
2023/04/13 09:36:49;;;;;;;9.32;4.22;;;;;;;13.67;50.59;97328.84;5061195;28;20169;-71
2023/04/13 09:39:22;;;;;;;9.73;4.88;;;;;;;13.77;49.93;97333.06;5060669;28;20107;-70
2023/04/13 09:41:49;;;;;;;7.97;4.72;;;;;;;13.86;50.16;97328.25;5057946;28;20025;-70
2023/04/13 09:44:19;;;;;;;8.38;4.78;;;;;;;13.96;48.86;97322.28;5039868;28;20308;-70
2023/04/13 09:47:05;;;;;;;8.75;5.70;;;;;;;14.10;49.79;97318.31;5032932;28;20036;-70
2023/04/13 09:49:42;;;;;;;9.10;5.30;;;;;;;14.23;49.88;97325.44;5039015;28;20040;-70
2023/04/13 09:52:23;;;;;;;8.18;4.93;;;;;;;14.34;50.32;97327.72;5041418;28;20025;-70
2023/04/13 09:54:57;;;;;;;8.35;5.10;;;;;;;14.42;50.11;97330.31;5039778;28;20027;-72
2023/04/13 09:57:30;;;;;;;6.97;4.75;;;;;;;14.52;50.04;97331.78;5043608;28;20029;-71
2023/04/13 09:59:59;;;;;;;7.57;4.60;;;;;;;14.61;50.30;97336.34;5041673;28;20028;-71
2023/04/13 10:02:25;;;;;;;10.02;5.03;;;;;;;14.69;50.18;97330.69;5028975;28;20136;-70
2023/04/13 10:04:51;;;;;;;8.52;4.88;;;;;;;14.71;49.61;97322.88;5038810;28;20029;-71
2023/04/13 10:07:17;;;;;;;7.28;4.50;;;;;;;14.71;49.19;97316.56;5036486;28;20139;-72
2023/04/13 10:09:43;;;;;;;7.30;4.57;;;;;;;14.72;49.70;97327.25;5039895;28;20420;-72
2023/04/13 10:12:13;;;;;;;7.20;4.38;;;;;;;14.69;49.13;97327.94;5044160;28;20559;-73
2023/04/13 10:14:42;;;;;;;6.40;4.32;;;;;;;14.73;48.71;97325.31;5045518;28;20461;-72
2023/04/13 10:17:16;;;;;;;7.35;4.55;;;;;;;14.73;48.83;97336.34;5048981;28;21562;-71
2023/04/13 10:19:45;;;;;;;9.07;4.63;;;;;;;14.81;48.86;97331.81;5072878;28;20055;-70
2023/04/13 10:22:12;;;;;;;6.85;4.78;;;;;;;14.88;48.38;97327.28;5059752;28;20054;-70
2023/04/13 10:24:38;;;;;;;7.32;4.47;;;;;;;14.93;49.07;97326.25;5062846;28;20497;-69
2023/04/13 10:27:15;;;;;;;9.90;4.45;;;;;;;15.10;49.72;97321.53;5070894;28;20037;-71
2023/04/13 10:29:41;;;;;;;6.40;4.05;;;;;;;15.25;49.19;97317.22;5051836;28;20056;-69
2023/04/13 10:32:06;;;;;;;6.47;4.20;;;;;;;15.30;48.33;97325.22;5063846;28;20067;-72
2023/04/13 10:34:34;;;;;;;6.97;4.15;;;;;;;15.33;48.39;97330.84;5069080;28;20033;-69
2023/04/13 10:37:03;;;;;;;7.13;4.25;;;;;;;15.36;48.26;97326.56;5062583;28;20036;-69
2023/04/13 10:39:35;;;;;;;6.93;3.83;;;;;;;15.42;48.67;97327.91;5067784;28;20048;-69
2023/04/13 10:42:06;;;;;;;4.95;3.60;;;;;;;15.50;48.13;97314.25;5059224;28;20074;-70
2023/04/13 10:44:52;;;;;;;5.22;3.58;;;;;;;15.55;48.16;97314.78;5086739;28;20043;-70
2023/04/13 10:47:20;;;;;;;5.80;3.65;;;;;;;15.61;47.70;97309.81;5089956;28;20032;-71
2023/04/13 10:49:49;;;;;;;5.60;4.18;;;;;;;15.69;48.06;97313.53;5090156;28;20549;-70
2023/04/13 10:52:15;;;;;;;7.85;3.63;;;;;;;15.75;47.98;97317.63;5087228;28;20032;-72
2023/04/13 10:54:42;;;;;;;4.07;3.67;;;;;;;15.83;47.82;97319.41;5092094;28;20590;-72
2023/04/13 10:57:09;;;;;;;5.90;3.05;;;;;;;15.91;47.70;97312.09;5090056;28;20028;-73
2023/04/13 10:59:55;;;;;;;5.57;4.55;;;;;;;15.97;47.47;97312.63;5089832;28;20032;-72
2023/04/13 11:02:24;;;;;;;9.90;4.10;;;;;;;16.10;47.73;97314.09;5086032;28;20448;-72
2023/04/13 11:04:50;;;;;;;7.45;5.50;;;;;;;16.26;47.37;97318.81;5089585;28;20062;-77
2023/04/13 11:07:27;;;;;;;7.07;4.80;;;;;;;16.43;46.93;97312.84;5092806;28;20061;-72
2023/04/13 11:09:58;;;;;;;7.85;4.97;;;;;;;16.66;46.39;97318.44;5091955;28;20024;-71
2023/04/13 11:12:24;;;;;;;6.05;4.13;;;;;;;16.82;47.01;97317.56;5088387;28;20051;-71
2023/04/13 11:14:50;;;;;;;6.45;4.28;;;;;;;16.99;47.04;97312.75;5092975;28;20476;-71
2023/04/13 11:17:19;;;;;;;5.55;3.92;;;;;;;17.14;46.34;97314.63;5093367;28;20467;-70
2023/04/13 11:19:46;;;;;;;6.38;3.40;;;;;;;17.10;43.07;97308.22;5093169;28;20491;-72
2023/04/13 11:22:17;;;;;;;7.25;4.70;;;;;;;17.04;45.61;97313.28;5092283;28;20027;-70
2023/04/13 11:24:44;;;;;;;8.48;5.35;;;;;;;17.06;45.52;97319.25;5093512;28;20077;-72
2023/04/13 11:27:36;;;;;;;5.60;4.07;;;;;;;16.99;45.98;97324.66;5075160;28;20051;-74